sensor_id;sensor_type;location;lat;lon;timestamp;pressure;altitude;pressure_sealevel;temperature;humidity
52983;BME280;48698;45.736;13.926;2022-12-24T00:01:54;97463.69;;;5.91;100.00
52983;BME280;48698;45.736;13.926;2022-12-24T00:06:57;97488.44;;;6.12;100.00
52983;BME280;48698;45.736;13.926;2022-12-24T00:11:59;97499.44;;;6.00;100.00
52983;BME280;48698;45.736;13.926;2022-12-24T00:17:02;97452.56;;;5.83;100.00
52983;BME280;48698;45.736;13.926;2022-12-24T00:22:05;97543.75;;;6.61;100.00
52983;BME280;48698;45.736;13.926;2022-12-24T00:27:08;97530.06;;;6.75;100.00
52983;BME280;48698;45.736;13.926;2022-12-24T00:32:11;97515.09;;;6.75;100.00
52983;BME280;48698;45.736;13.926;2022-12-24T00:37:13;97467.84;;;6.46;100.00
52983;BME280;48698;45.736;13.926;2022-12-24T00:42:16;97498.44;;;6.73;100.00
52983;BME280;48698;45.736;13.926;2022-12-24T00:47:19;97357.09;;;6.00;100.00
52983;BME280;48698;45.736;13.926;2022-12-24T00:52:22;97332.72;;;5.70;100.00
52983;BME280;48698;45.736;13.926;2022-12-24T00:57:24;97360.81;;;5.69;100.00
52983;BME280;48698;45.736;13.926;2022-12-24T01:02:27;97502.69;;;6.54;100.00
52983;BME280;48698;45.736;13.926;2022-12-24T01:07:31;97403.16;;;5.90;100.00
52983;BME280;48698;45.736;13.926;2022-12-24T01:12:34;97489.94;;;6.19;100.00
52983;BME280;48698;45.736;13.926;2022-12-24T01:17:37;97538.25;;;6.67;100.00
52983;BME280;48698;45.736;13.926;2022-12-24T01:22:40;97480.56;;;6.35;100.00
52983;BME280;48698;45.736;13.926;2022-12-24T01:27:43;97391.13;;;5.81;100.00
52983;BME280;48698;45.736;13.926;2022-12-24T01:32:46;97398.91;;;5.86;100.00
52983;BME280;48698;45.736;13.926;2022-12-24T01:37:48;97524.44;;;6.61;100.00
52983;BME280;48698;45.736;13.926;2022-12-24T01:42:51;97412.16;;;6.07;100.00
52983;BME280;48698;45.736;13.926;2022-12-24T01:48:37;97505.31;;;6.78;100.00
52983;BME280;48698;45.736;13.926;2022-12-24T01:53:43;97459.69;;;6.52;100.00
52983;BME280;48698;45.736;13.926;2022-12-24T01:58:51;97485.59;;;6.41;100.00
52983;BME280;48698;45.736;13.926;2022-12-24T02:04:14;97501.41;;;6.18;100.00
52983;BME280;48698;45.736;13.926;2022-12-24T02:09:17;97532.63;;;6.53;100.00
52983;BME280;48698;45.736;13.926;2022-12-24T02:14:22;97545.06;;;6.73;100.00
52983;BME280;48698;45.736;13.926;2022-12-24T02:30:13;97536.22;;;6.75;100.00
52983;BME280;48698;45.736;13.926;2022-12-24T02:35:37;97536.84;;;6.82;100.00
52983;BME280;48698;45.736;13.926;2022-12-24T02:40:54;97548.88;;;6.66;100.00
52983;BME280;48698;45.736;13.926;2022-12-24T02:46:02;97531.06;;;6.48;100.00
52983;BME280;48698;45.736;13.926;2022-12-24T02:51:09;97520.47;;;6.49;100.00
52983;BME280;48698;45.736;13.926;2022-12-24T02:56:33;97535.97;;;6.58;100.00
52983;BME280;48698;45.736;13.926;2022-12-24T03:06:57;97557.75;;;6.63;100.00
52983;BME280;48698;45.736;13.926;2022-12-24T03:12:33;97512.22;;;6.35;100.00
52983;BME280;48698;45.736;13.926;2022-12-24T03:17:38;97501.81;;;6.31;100.00
52983;BME280;48698;45.736;13.926;2022-12-24T03:22:42;97585.19;;;6.59;100.00
52983;BME280;48698;45.736;13.926;2022-12-24T03:27:45;97463.09;;;5.83;100.00
52983;BME280;48698;45.736;13.926;2022-12-24T03:32:48;97525.88;;;6.21;100.00
52983;BME280;48698;45.736;13.926;2022-12-24T03:37:51;97496.28;;;6.13;100.00
52983;BME280;48698;45.736;13.926;2022-12-24T03:42:54;97500.09;;;6.06;100.00
52983;BME280;48698;45.736;13.926;2022-12-24T03:47:56;97465.66;;;5.85;100.00
52983;BME280;48698;45.736;13.926;2022-12-24T03:52:59;97523.25;;;6.21;100.00
52983;BME280;48698;45.736;13.926;2022-12-24T03:58:02;97492.13;;;6.31;100.00
52983;BME280;48698;45.736;13.926;2022-12-24T04:03:05;97496.16;;;6.41;100.00
52983;BME280;48698;45.736;13.926;2022-12-24T04:08:07;97548.16;;;6.38;100.00
52983;BME280;48698;45.736;13.926;2022-12-24T04:13:10;97493.72;;;6.12;100.00
52983;BME280;48698;45.736;13.926;2022-12-24T04:18:13;97531.47;;;6.37;100.00
52983;BME280;48698;45.736;13.926;2022-12-24T04:23:24;97525.28;;;6.61;100.00
52983;BME280;48698;45.736;13.926;2022-12-24T04:28:30;97537.75;;;6.81;100.00
52983;BME280;48698;45.736;13.926;2022-12-24T04:33:34;97531.56;;;6.82;100.00
52983;BME280;48698;45.736;13.926;2022-12-24T04:38:37;97537.13;;;6.74;100.00
52983;BME280;48698;45.736;13.926;2022-12-24T04:43:40;97546.44;;;6.83;100.00
52983;BME280;48698;45.736;13.926;2022-12-24T04:48:49;97575.53;;;6.58;100.00
52983;BME280;48698;45.736;13.926;2022-12-24T04:54:01;97577.84;;;6.67;100.00
52983;BME280;48698;45.736;13.926;2022-12-24T04:59:03;97551.91;;;6.55;100.00
52983;BME280;48698;45.736;13.926;2022-12-24T05:04:07;97561.72;;;6.75;100.00
52983;BME280;48698;45.736;13.926;2022-12-24T05:09:11;97433.53;;;6.00;100.00
52983;BME280;48698;45.736;13.926;2022-12-24T05:14:18;97535.38;;;6.73;100.00
52983;BME280;48698;45.736;13.926;2022-12-24T05:19:31;97522.41;;;6.44;100.00
52983;BME280;48698;45.736;13.926;2022-12-24T05:24:34;97560.06;;;6.72;100.00
52983;BME280;48698;45.736;13.926;2022-12-24T05:29:56;97433.59;;;5.98;100.00
52983;BME280;48698;45.736;13.926;2022-12-24T05:34:58;97550.69;;;6.64;100.00
52983;BME280;48698;45.736;13.926;2022-12-24T05:40:01;97534.94;;;6.39;100.00
52983;BME280;48698;45.736;13.926;2022-12-24T05:45:15;97578.81;;;6.65;100.00
52983;BME280;48698;45.736;13.926;2022-12-24T05:50:28;97497.22;;;6.12;100.00
52983;BME280;48698;45.736;13.926;2022-12-24T05:55:30;97584.78;;;6.70;100.00
52983;BME280;48698;45.736;13.926;2022-12-24T06:00:33;97567.50;;;6.61;100.00
52983;BME280;48698;45.736;13.926;2022-12-24T06:05:36;97584.16;;;6.87;100.00
52983;BME280;48698;45.736;13.926;2022-12-24T06:10:39;97594.66;;;6.88;100.00
52983;BME280;48698;45.736;13.926;2022-12-24T06:15:41;97589.19;;;6.93;100.00
52983;BME280;48698;45.736;13.926;2022-12-24T06:20:44;97570.50;;;6.75;100.00
52983;BME280;48698;45.736;13.926;2022-12-24T06:25:47;97579.09;;;6.81;100.00
52983;BME280;48698;45.736;13.926;2022-12-24T06:31:01;97563.63;;;6.71;100.00
52983;BME280;48698;45.736;13.926;2022-12-24T06:36:08;97576.09;;;6.66;100.00
52983;BME280;48698;45.736;13.926;2022-12-24T06:41:18;97579.34;;;6.74;100.00
52983;BME280;48698;45.736;13.926;2022-12-24T06:46:21;97574.41;;;6.65;100.00
52983;BME280;48698;45.736;13.926;2022-12-24T06:51:24;97585.41;;;6.76;100.00
52983;BME280;48698;45.736;13.926;2022-12-24T06:56:35;97521.13;;;6.56;100.00
52983;BME280;48698;45.736;13.926;2022-12-24T07:01:38;97603.47;;;6.89;100.00
52983;BME280;48698;45.736;13.926;2022-12-24T07:06:41;97607.75;;;6.91;100.00
52983;BME280;48698;45.736;13.926;2022-12-24T07:11:43;97599.09;;;6.88;100.00
52983;BME280;48698;45.736;13.926;2022-12-24T07:16:46;97635.44;;;6.80;100.00
52983;BME280;48698;45.736;13.926;2022-12-24T07:21:55;97617.16;;;6.75;100.00
52983;BME280;48698;45.736;13.926;2022-12-24T07:26:58;97626.72;;;6.78;100.00
52983;BME280;48698;45.736;13.926;2022-12-24T07:32:09;97636.00;;;6.89;100.00
52983;BME280;48698;45.736;13.926;2022-12-24T07:37:19;97611.81;;;7.00;100.00
52983;BME280;48698;45.736;13.926;2022-12-24T07:42:22;97619.81;;;6.98;100.00
52983;BME280;48698;45.736;13.926;2022-12-24T07:47:25;97642.19;;;7.11;100.00
52983;BME280;48698;45.736;13.926;2022-12-24T07:52:28;97654.28;;;6.94;100.00
52983;BME280;48698;45.736;13.926;2022-12-24T07:57:31;97607.50;;;6.74;100.00
52983;BME280;48698;45.736;13.926;2022-12-24T08:02:34;97637.06;;;6.84;100.00
52983;BME280;48698;45.736;13.926;2022-12-24T08:07:38;97690.59;;;7.12;100.00
52983;BME280;48698;45.736;13.926;2022-12-24T08:12:41;97651.28;;;6.80;100.00
52983;BME280;48698;45.736;13.926;2022-12-24T08:17:54;97704.31;;;6.98;100.00
52983;BME280;48698;45.736;13.926;2022-12-24T08:22:56;97711.03;;;7.07;100.00
52983;BME280;48698;45.736;13.926;2022-12-24T08:27:59;97664.31;;;6.84;100.00
52983;BME280;48698;45.736;13.926;2022-12-24T08:33:02;97720.84;;;7.26;100.00
52983;BME280;48698;45.736;13.926;2022-12-24T08:38:05;97733.03;;;7.31;100.00
52983;BME280;48698;45.736;13.926;2022-12-24T08:43:07;97641.22;;;7.14;100.00
52983;BME280;48698;45.736;13.926;2022-12-24T08:48:10;97691.56;;;7.56;100.00
52983;BME280;48698;45.736;13.926;2022-12-24T08:53:23;97676.81;;;7.50;100.00
52983;BME280;48698;45.736;13.926;2022-12-24T08:58:25;97673.28;;;7.50;100.00
52983;BME280;48698;45.736;13.926;2022-12-24T09:03:28;97690.38;;;7.64;100.00
52983;BME280;48698;45.736;13.926;2022-12-24T09:08:31;97677.84;;;7.46;100.00
52983;BME280;48698;45.736;13.926;2022-12-24T09:13:35;97717.78;;;7.62;100.00
52983;BME280;48698;45.736;13.926;2022-12-24T09:18:38;97700.53;;;7.52;100.00
52983;BME280;48698;45.736;13.926;2022-12-24T09:23:43;97708.03;;;7.62;100.00
52983;BME280;48698;45.736;13.926;2022-12-24T09:28:46;97707.22;;;7.62;100.00
52983;BME280;48698;45.736;13.926;2022-12-24T09:33:50;97744.41;;;7.56;100.00
52983;BME280;48698;45.736;13.926;2022-12-24T09:38:53;97779.88;;;7.73;100.00
52983;BME280;48698;45.736;13.926;2022-12-24T09:44:02;97779.88;;;7.73;100.00
52983;BME280;48698;45.736;13.926;2022-12-24T09:49:13;97779.72;;;7.78;100.00
52983;BME280;48698;45.736;13.926;2022-12-24T09:54:20;97799.41;;;7.93;100.00
52983;BME280;48698;45.736;13.926;2022-12-24T09:59:31;97756.94;;;7.51;100.00
52983;BME280;48698;45.736;13.926;2022-12-24T10:04:46;97757.22;;;7.66;100.00
52983;BME280;48698;45.736;13.926;2022-12-24T10:10:06;97780.97;;;7.91;100.00
52983;BME280;48698;45.736;13.926;2022-12-24T10:15:25;97787.53;;;7.81;100.00
52983;BME280;48698;45.736;13.926;2022-12-24T10:20:44;97783.63;;;7.91;100.00
52983;BME280;48698;45.736;13.926;2022-12-24T10:30:57;97787.06;;;7.70;100.00
52983;BME280;48698;45.736;13.926;2022-12-24T10:36:01;97794.13;;;7.93;100.00
52983;BME280;48698;45.736;13.926;2022-12-24T10:41:13;97778.00;;;7.99;100.00
52983;BME280;48698;45.736;13.926;2022-12-24T10:46:37;97786.03;;;7.97;100.00
52983;BME280;48698;45.736;13.926;2022-12-24T10:51:51;97797.88;;;8.09;100.00
52983;BME280;48698;45.736;13.926;2022-12-24T10:56:58;97802.03;;;7.93;100.00
52983;BME280;48698;45.736;13.926;2022-12-24T11:02:01;97765.56;;;7.79;100.00
52983;BME280;48698;45.736;13.926;2022-12-24T11:07:10;97776.94;;;7.81;100.00
52983;BME280;48698;45.736;13.926;2022-12-24T11:12:22;97812.31;;;8.02;100.00
52983;BME280;48698;45.736;13.926;2022-12-24T11:17:25;97780.69;;;7.75;100.00
52983;BME280;48698;45.736;13.926;2022-12-24T11:22:30;97763.09;;;7.74;100.00
52983;BME280;48698;45.736;13.926;2022-12-24T11:27:40;97784.69;;;7.86;100.00
52983;BME280;48698;45.736;13.926;2022-12-24T11:32:48;97796.94;;;8.11;100.00
52983;BME280;48698;45.736;13.926;2022-12-24T11:43:04;97781.09;;;7.88;100.00
52983;BME280;48698;45.736;13.926;2022-12-24T11:48:25;97713.44;;;7.59;100.00
52983;BME280;48698;45.736;13.926;2022-12-24T11:53:45;97748.56;;;8.08;100.00
52983;BME280;48698;45.736;13.926;2022-12-24T11:58:53;97762.47;;;8.13;100.00
52983;BME280;48698;45.736;13.926;2022-12-24T12:04:13;97759.94;;;8.10;100.00
52983;BME280;48698;45.736;13.926;2022-12-24T12:09:20;97762.78;;;8.28;100.00
52983;BME280;48698;45.736;13.926;2022-12-24T12:14:32;97750.84;;;8.17;100.00
52983;BME280;48698;45.736;13.926;2022-12-24T12:19:48;97719.63;;;8.68;100.00
52983;BME280;48698;45.736;13.926;2022-12-24T12:24:55;97621.31;;;7.94;100.00
52983;BME280;48698;45.736;13.926;2022-12-24T12:30:06;97737.38;;;8.66;100.00
52983;BME280;48698;45.736;13.926;2022-12-24T12:35:20;97733.38;;;8.56;100.00
52983;BME280;48698;45.736;13.926;2022-12-24T12:45:50;97762.25;;;8.62;100.00
52983;BME280;48698;45.736;13.926;2022-12-24T12:50:59;97765.06;;;8.79;100.00
52983;BME280;48698;45.736;13.926;2022-12-24T13:01:51;97789.28;;;8.70;100.00
52983;BME280;48698;45.736;13.926;2022-12-24T13:07:23;97799.56;;;8.78;100.00
52983;BME280;48698;45.736;13.926;2022-12-24T13:18:12;97803.38;;;8.71;100.00
52983;BME280;48698;45.736;13.926;2022-12-24T13:23:22;97812.47;;;8.86;100.00
52983;BME280;48698;45.736;13.926;2022-12-24T13:38:47;97691.25;;;8.08;100.00
52983;BME280;48698;45.736;13.926;2022-12-24T13:49:11;97823.41;;;8.98;100.00
52983;BME280;48698;45.736;13.926;2022-12-24T13:54:22;97811.59;;;8.85;100.00
52983;BME280;48698;45.736;13.926;2022-12-24T13:59:38;97782.38;;;8.66;100.00
52983;BME280;48698;45.736;13.926;2022-12-24T14:04:44;97805.31;;;8.88;100.00
52983;BME280;48698;45.736;13.926;2022-12-24T14:09:52;97804.25;;;8.92;100.00
52983;BME280;48698;45.736;13.926;2022-12-24T14:14:55;97808.34;;;8.78;100.00
52983;BME280;48698;45.736;13.926;2022-12-24T14:19:59;97728.94;;;8.13;100.00
52983;BME280;48698;45.736;13.926;2022-12-24T14:25:16;97829.13;;;8.67;100.00
52983;BME280;48698;45.736;13.926;2022-12-24T14:30:23;97838.09;;;8.63;100.00
52983;BME280;48698;45.736;13.926;2022-12-24T14:35:36;97825.78;;;8.62;100.00
52983;BME280;48698;45.736;13.926;2022-12-24T14:46:24;97850.56;;;8.61;100.00
52983;BME280;48698;45.736;13.926;2022-12-24T14:51:36;97846.34;;;8.56;100.00
52983;BME280;48698;45.736;13.926;2022-12-24T14:56:41;97856.88;;;8.57;100.00
52983;BME280;48698;45.736;13.926;2022-12-24T15:01:44;97761.34;;;7.97;100.00
52983;BME280;48698;45.736;13.926;2022-12-24T15:06:56;97789.88;;;8.12;100.00
52983;BME280;48698;45.736;13.926;2022-12-24T15:12:01;97837.41;;;8.37;100.00
52983;BME280;48698;45.736;13.926;2022-12-24T15:17:08;97785.63;;;7.85;100.00
52983;BME280;48698;45.736;13.926;2022-12-24T15:22:21;97848.63;;;8.20;100.00
52983;BME280;48698;45.736;13.926;2022-12-24T15:27:31;97843.28;;;7.98;100.00
52983;BME280;48698;45.736;13.926;2022-12-24T15:32:34;97813.44;;;7.71;100.00
52983;BME280;48698;45.736;13.926;2022-12-24T15:37:40;97838.28;;;7.91;100.00
52983;BME280;48698;45.736;13.926;2022-12-24T15:42:44;97825.09;;;7.66;100.00
52983;BME280;48698;45.736;13.926;2022-12-24T15:52:49;97903.63;;;8.12;100.00
52983;BME280;48698;45.736;13.926;2022-12-24T15:58:27;97924.31;;;8.24;100.00
52983;BME280;48698;45.736;13.926;2022-12-24T16:03:30;97921.03;;;8.17;100.00
52983;BME280;48698;45.736;13.926;2022-12-24T16:08:36;97881.97;;;8.01;100.00
52983;BME280;48698;45.736;13.926;2022-12-24T16:14:27;97928.69;;;8.02;100.00
52983;BME280;48698;45.736;13.926;2022-12-24T16:19:06;97929.69;;;7.98;100.00
52983;BME280;48698;45.736;13.926;2022-12-24T16:24:15;97899.75;;;7.72;100.00
52983;BME280;48698;45.736;13.926;2022-12-24T16:29:20;97940.53;;;7.90;100.00
52983;BME280;48698;45.736;13.926;2022-12-24T16:34:26;97808.63;;;7.10;100.00
52983;BME280;48698;45.736;13.926;2022-12-24T16:39:33;97953.38;;;8.01;100.00
52983;BME280;48698;45.736;13.926;2022-12-24T16:44:46;97937.47;;;7.77;100.00
52983;BME280;48698;45.736;13.926;2022-12-24T16:49:50;97932.28;;;7.74;100.00
52983;BME280;48698;45.736;13.926;2022-12-24T16:54:52;97976.66;;;7.91;100.00
52983;BME280;48698;45.736;13.926;2022-12-24T16:59:55;97960.06;;;7.86;100.00
52983;BME280;48698;45.736;13.926;2022-12-24T17:05:10;97999.75;;;8.11;100.00
52983;BME280;48698;45.736;13.926;2022-12-24T17:10:13;97992.13;;;7.77;100.00
52983;BME280;48698;45.736;13.926;2022-12-24T17:15:16;98016.00;;;7.75;100.00
52983;BME280;48698;45.736;13.926;2022-12-24T17:20:18;97873.66;;;6.86;100.00
52983;BME280;48698;45.736;13.926;2022-12-24T17:25:25;97916.66;;;7.17;100.00
52983;BME280;48698;45.736;13.926;2022-12-24T17:30:28;97860.31;;;6.64;100.00
52983;BME280;48698;45.736;13.926;2022-12-24T17:35:31;97999.44;;;7.69;100.00
52983;BME280;48698;45.736;13.926;2022-12-24T17:40:34;98011.63;;;7.74;100.00
52983;BME280;48698;45.736;13.926;2022-12-24T17:45:40;97982.44;;;7.51;100.00
52983;BME280;48698;45.736;13.926;2022-12-24T17:50:43;97949.13;;;7.21;100.00
52983;BME280;48698;45.736;13.926;2022-12-24T17:55:46;98018.53;;;7.78;100.00
52983;BME280;48698;45.736;13.926;2022-12-24T18:00:49;97855.50;;;6.77;100.00
52983;BME280;48698;45.736;13.926;2022-12-24T18:05:52;97932.75;;;7.36;100.00
52983;BME280;48698;45.736;13.926;2022-12-24T18:10:55;97927.28;;;7.42;100.00
52983;BME280;48698;45.736;13.926;2022-12-24T18:15:57;97938.00;;;7.38;100.00
52983;BME280;48698;45.736;13.926;2022-12-24T18:21:00;97957.66;;;7.29;100.00
52983;BME280;48698;45.736;13.926;2022-12-24T18:26:04;98026.16;;;7.61;100.00
52983;BME280;48698;45.736;13.926;2022-12-24T18:31:13;98035.50;;;7.71;100.00
52983;BME280;48698;45.736;13.926;2022-12-24T18:36:17;98021.00;;;7.57;100.00
52983;BME280;48698;45.736;13.926;2022-12-24T18:41:23;98051.94;;;7.81;100.00
52983;BME280;48698;45.736;13.926;2022-12-24T18:46:30;98041.75;;;7.69;100.00
52983;BME280;48698;45.736;13.926;2022-12-24T18:51:33;97891.59;;;6.76;100.00
52983;BME280;48698;45.736;13.926;2022-12-24T18:56:37;97872.16;;;6.53;100.00
52983;BME280;48698;45.736;13.926;2022-12-24T19:01:40;97909.28;;;6.73;100.00
52983;BME280;48698;45.736;13.926;2022-12-24T19:06:43;98044.03;;;7.53;100.00
52983;BME280;48698;45.736;13.926;2022-12-24T19:11:53;97990.56;;;7.19;100.00
52983;BME280;48698;45.736;13.926;2022-12-24T19:16:56;97999.53;;;7.13;100.00
52983;BME280;48698;45.736;13.926;2022-12-24T19:21:59;98054.78;;;7.49;100.00
52983;BME280;48698;45.736;13.926;2022-12-24T19:27:03;98004.53;;;7.22;100.00
52983;BME280;48698;45.736;13.926;2022-12-24T19:32:05;98027.09;;;7.33;100.00
52983;BME280;48698;45.736;13.926;2022-12-24T19:37:08;98001.28;;;7.14;100.00
52983;BME280;48698;45.736;13.926;2022-12-24T19:42:11;98024.38;;;7.36;100.00
52983;BME280;48698;45.736;13.926;2022-12-24T19:47:13;97984.31;;;6.94;100.00
52983;BME280;48698;45.736;13.926;2022-12-24T19:52:16;97922.69;;;6.67;100.00
52983;BME280;48698;45.736;13.926;2022-12-24T19:57:29;98086.31;;;7.53;100.00
52983;BME280;48698;45.736;13.926;2022-12-24T20:02:32;98113.59;;;7.55;100.00
52983;BME280;48698;45.736;13.926;2022-12-24T20:07:35;98135.53;;;7.57;100.00
52983;BME280;48698;45.736;13.926;2022-12-24T20:12:38;98133.47;;;7.67;100.00
52983;BME280;48698;45.736;13.926;2022-12-24T20:17:40;98132.88;;;7.59;100.00
52983;BME280;48698;45.736;13.926;2022-12-24T20:22:43;98123.50;;;7.49;100.00
52983;BME280;48698;45.736;13.926;2022-12-24T20:27:45;97998.44;;;6.63;100.00
52983;BME280;48698;45.736;13.926;2022-12-24T20:32:52;97958.00;;;6.34;100.00
52983;BME280;48698;45.736;13.926;2022-12-24T20:37:54;97945.84;;;6.30;100.00
52983;BME280;48698;45.736;13.926;2022-12-24T20:42:57;98065.00;;;7.04;100.00
52983;BME280;48698;45.736;13.926;2022-12-24T20:48:00;98091.84;;;7.18;100.00
52983;BME280;48698;45.736;13.926;2022-12-24T20:53:04;98060.69;;;7.00;100.00
52983;BME280;48698;45.736;13.926;2022-12-24T20:58:09;98122.75;;;7.44;100.00
52983;BME280;48698;45.736;13.926;2022-12-24T21:03:14;98132.22;;;7.51;100.00
52983;BME280;48698;45.736;13.926;2022-12-24T21:08:18;98061.84;;;7.20;100.00
52983;BME280;48698;45.736;13.926;2022-12-24T21:13:22;98140.84;;;7.56;100.00
52983;BME280;48698;45.736;13.926;2022-12-24T21:18:26;98128.16;;;7.39;100.00
52983;BME280;48698;45.736;13.926;2022-12-24T21:23:30;98080.25;;;6.94;100.00
52983;BME280;48698;45.736;13.926;2022-12-24T21:28:44;98145.06;;;7.35;100.00
52983;BME280;48698;45.736;13.926;2022-12-24T21:33:47;98017.25;;;6.53;100.00
52983;BME280;48698;45.736;13.926;2022-12-24T21:38:54;97956.31;;;6.02;100.00
52983;BME280;48698;45.736;13.926;2022-12-24T21:43:59;98076.63;;;6.67;100.00
52983;BME280;48698;45.736;13.926;2022-12-24T21:49:13;98089.44;;;6.81;100.00
52983;BME280;48698;45.736;13.926;2022-12-24T21:54:47;98151.84;;;7.13;100.00
52983;BME280;48698;45.736;13.926;2022-12-24T21:59:53;98149.88;;;7.21;100.00
52983;BME280;48698;45.736;13.926;2022-12-24T22:04:57;98096.47;;;7.11;100.00
52983;BME280;48698;45.736;13.926;2022-12-24T22:10:13;98105.25;;;7.12;100.00
52983;BME280;48698;45.736;13.926;2022-12-24T22:15:47;98164.44;;;7.34;100.00
52983;BME280;48698;45.736;13.926;2022-12-24T22:20:51;98131.28;;;7.24;100.00
52983;BME280;48698;45.736;13.926;2022-12-24T22:25:56;98130.72;;;7.13;100.00
52983;BME280;48698;45.736;13.926;2022-12-24T22:31:00;98103.91;;;6.97;100.00
52983;BME280;48698;45.736;13.926;2022-12-24T22:36:04;97993.72;;;6.45;100.00
52983;BME280;48698;45.736;13.926;2022-12-24T22:41:09;98206.78;;;7.62;100.00
52983;BME280;48698;45.736;13.926;2022-12-24T22:46:13;98122.09;;;7.08;100.00
52983;BME280;48698;45.736;13.926;2022-12-24T22:51:19;98186.03;;;7.48;100.00
52983;BME280;48698;45.736;13.926;2022-12-24T22:56:24;98093.63;;;6.88;100.00
52983;BME280;48698;45.736;13.926;2022-12-24T23:01:36;98165.31;;;7.35;100.00
52983;BME280;48698;45.736;13.926;2022-12-24T23:06:41;98218.94;;;7.67;100.00
52983;BME280;48698;45.736;13.926;2022-12-24T23:11:46;98157.41;;;7.04;100.00
52983;BME280;48698;45.736;13.926;2022-12-24T23:16:49;98218.97;;;7.37;100.00
52983;BME280;48698;45.736;13.926;2022-12-24T23:21:53;98188.22;;;7.34;100.00
52983;BME280;48698;45.736;13.926;2022-12-24T23:26:57;98218.44;;;7.55;100.00
52983;BME280;48698;45.736;13.926;2022-12-24T23:32:01;98218.38;;;7.56;100.00
52983;BME280;48698;45.736;13.926;2022-12-24T23:37:04;98197.91;;;7.35;100.00
52983;BME280;48698;45.736;13.926;2022-12-24T23:42:08;98170.19;;;7.19;100.00
52983;BME280;48698;45.736;13.926;2022-12-24T23:47:13;98226.41;;;7.53;100.00
52983;BME280;48698;45.736;13.926;2022-12-24T23:52:16;98079.75;;;6.82;100.00
52983;BME280;48698;45.736;13.926;2022-12-24T23:57:19;98205.06;;;7.59;100.00
